地図

経路データ

SID SEASON NUMBER BASIN SUBBASIN NAME ISO_TIME NATURE LAT LON WMO_WIND WMO_PRES WMO_AGENCY TRACK_TYPE DIST2LAND LANDFALL IFLAG USA_AGENCY USA_ATCF_ID USA_LAT USA_LON USA_RECORD USA_STATUS USA_WIND USA_PRES USA_SSHS USA_R34_NE USA_R34_SE USA_R34_SW USA_R34_NW USA_R50_NE USA_R50_SE USA_R50_SW USA_R50_NW USA_R64_NE USA_R64_SE USA_R64_SW USA_R64_NW USA_POCI USA_ROCI USA_RMW USA_EYE TOKYO_LAT TOKYO_LON TOKYO_GRADE TOKYO_WIND TOKYO_PRES TOKYO_R50_DIR TOKYO_R50_LONG TOKYO_R50_SHORT TOKYO_R30_DIR TOKYO_R30_LONG TOKYO_R30_SHORT TOKYO_LAND CMA_LAT CMA_LON CMA_CAT CMA_WIND CMA_PRES HKO_LAT HKO_LON HKO_CAT HKO_WIND HKO_PRES NEWDELHI_LAT NEWDELHI_LON NEWDELHI_GRADE NEWDELHI_WIND NEWDELHI_PRES NEWDELHI_CI NEWDELHI_DP NEWDELHI_POCI REUNION_LAT REUNION_LON REUNION_TYPE REUNION_WIND REUNION_PRES REUNION_TNUM REUNION_CI REUNION_RMW REUNION_R34_NE REUNION_R34_SE REUNION_R34_SW REUNION_R34_NW REUNION_R50_NE REUNION_R50_SE REUNION_R50_SW REUNION_R50_NW REUNION_R64_NE REUNION_R64_SE REUNION_R64_SW REUNION_R64_NW BOM_LAT BOM_LON BOM_TYPE BOM_WIND BOM_PRES BOM_TNUM BOM_CI BOM_RMW BOM_R34_NE BOM_R34_SE BOM_R34_SW BOM_R34_NW BOM_R50_NE BOM_R50_SE BOM_R50_SW BOM_R50_NW BOM_R64_NE BOM_R64_SE BOM_R64_SW BOM_R64_NW BOM_ROCI BOM_POCI BOM_EYE BOM_POS_METHOD BOM_PRES_METHOD NADI_LAT NADI_LON NADI_CAT NADI_WIND NADI_PRES WELLINGTON_LAT WELLINGTON_LON WELLINGTON_WIND WELLINGTON_PRES DS824_LAT DS824_LON DS824_STAGE DS824_WIND DS824_PRES TD9636_LAT TD9636_LON TD9636_STAGE TD9636_WIND TD9636_PRES TD9635_LAT TD9635_LON TD9635_WIND TD9635_PRES TD9635_ROCI NEUMANN_LAT NEUMANN_LON NEUMANN_CLASS NEUMANN_WIND NEUMANN_PRES MLC_LAT MLC_LON MLC_CLASS MLC_WIND MLC_PRES USA_GUST BOM_GUST BOM_GUST_PER REUNION_GUST REUNION_GUST_PER USA_SEAHGT USA_SEARAD_NE USA_SEARAD_SE USA_SEARAD_SW USA_SEARAD_NW STORM_SPEED STORM_DIR
1967287N13259 1967 122 EP MM PRISCILLA 1967-10-14 00:00:00 TS 12.8000 -101.500 45 hurdat_epa main 477 471 O________OO___ hurdat_epa EP151967 12.8000 -101.500 TS 45 0 12.8000 -101.500 TC 45 12.8000 -101.500 2 7 294
1967287N13259 1967 122 EP MM PRISCILLA 1967-10-14 03:00:00 TS 12.9503 -101.851 main 476 476 P________PP___ EP151967 12.9526 -101.852 TS 45 0 12.9526 -101.852 TC 45 12.9410 -101.847 2 7 294
1967287N13259 1967 122 EP MM PRISCILLA 1967-10-14 06:00:00 TS 13.0971 -102.199 45 hurdat_epa main 482 475 O________OP___ hurdat_epa EP151967 13.1000 -102.200 TS 45 0 13.1000 -102.200 TC 45 13.0854 -102.195 2 7 293
1967287N13259 1967 122 EP MM PRISCILLA 1967-10-14 09:00:00 TS 13.2414 -102.543 main 482 473 P________PP___ EP151967 13.2424 -102.543 TS 45 0 13.2424 -102.543 TC 45 13.2371 -102.545 2 7 294
1967287N13259 1967 122 EP MM PRISCILLA 1967-10-14 12:00:00 TS 13.4000 -102.900 45 hurdat_epa main 477 471 O________OO___ hurdat_epa EP151967 13.4000 -102.900 TS 45 0 13.4000 -102.900 TC 45 13.4000 -102.900 2 8 296
1967287N13259 1967 122 EP MM PRISCILLA 1967-10-14 15:00:00 TS 13.5895 -103.292 main 476 472 P________PP___ EP151967 13.5925 -103.300 TS 45 0 13.5925 -103.300 TC 45 13.5773 -103.260 2 9 297
1967287N13259 1967 122 EP MM PRISCILLA 1967-10-14 18:00:00 TS 13.7939 -103.686 45 hurdat_epa main 480 472 O________OP___ hurdat_epa EP151967 13.8000 -103.700 TS 45 0 13.8000 -103.700 TC 45 13.7697 -103.628 2 8 299
1967287N13259 1967 122 EP MM PRISCILLA 1967-10-14 21:00:00 TS 13.9893 -104.036 main 472 461 P________PP___ EP151967 13.9923 -104.043 TS 45 0 13.9923 -104.043 TC 45 13.9773 -104.007 2 8 300
1967287N13259 1967 122 EP MM PRISCILLA 1967-10-15 00:00:00 TS 14.2000 -104.400 45 hurdat_epa main 464 454 O________OO___ hurdat_epa EP151967 14.2000 -104.400 TS 45 0 14.2000 -104.400 TC 45 14.2000 -104.400 2 9 300
1967287N13259 1967 122 EP MM PRISCILLA 1967-10-15 03:00:00 TS 14.4403 -104.835 main 457 441 P________PP___ EP151967 14.4425 -104.842 TS 45 0 14.4425 -104.842 TC 45 14.4314 -104.803 2 10 300
1967287N13259 1967 122 EP MM PRISCILLA 1967-10-15 06:00:00 TS 14.6954 -105.284 45 hurdat_epa main 446 440 O________OP___ hurdat_epa EP151967 14.7000 -105.300 TS 45 0 14.7000 -105.300 TC 45 14.6772 -105.220 2 10 301
1967287N13259 1967 122 EP MM PRISCILLA 1967-10-15 09:00:00 TS 14.9407 -105.685 main 446 437 P________PP___ EP151967 14.9423 -105.693 TS 45 0 14.9423 -105.693 TC 45 14.9344 -105.653 2 9 303
1967287N13259 1967 122 EP MM PRISCILLA 1967-10-15 12:00:00 TS 15.2000 -106.100 45 hurdat_epa main 443 441 O________OO___ hurdat_epa EP151967 15.2000 -106.100 TS 45 0 15.2000 -106.100 TC 45 15.2000 -106.100 2 10 302
1967287N13259 1967 122 EP MM PRISCILLA 1967-10-15 15:00:00 TS 15.4944 -106.589 main 454 446 P________PP___ EP151967 15.5000 -106.592 TS 45 0 15.5000 -106.592 TC 45 15.4719 -106.577 2 11 302
1967287N13259 1967 122 EP MM PRISCILLA 1967-10-15 18:00:00 TS 15.7900 -107.093 45 hurdat_epa main 451 448 O________OP___ hurdat_epa EP151967 15.8000 -107.100 TS 45 0 15.8000 -107.100 TC 45 15.7501 -107.065 2 11 301
1967287N13259 1967 122 EP MM PRISCILLA 1967-10-15 21:00:00 TS 16.0516 -107.561 main 456 456 P________PP___ EP151967 16.0574 -107.565 TS 60 0 16.0574 -107.565 TC 60 16.0282 -107.546 2 10 300
1967287N13259 1967 122 EP MM PRISCILLA 1967-10-16 00:00:00 TS 16.3000 -108.000 75 hurdat_epa main 469 469 O________OO___ hurdat_epa EP151967 16.3000 -108.000 HU 75 1 16.3000 -108.000 TC 75 16.3000 -108.000 3 10 301
1967287N13259 1967 122 EP MM PRISCILLA 1967-10-16 03:00:00 TS 16.5496 -108.413 main 484 476 P________PP___ EP151967 16.5499 -108.415 HU 75 1 16.5499 -108.415 TC 75 16.5486 -108.404 3 9 303
1967287N13259 1967 122 EP MM PRISCILLA 1967-10-16 06:00:00 TS 16.7984 -108.796 75 hurdat_epa main 491 491 O________OP___ hurdat_epa EP151967 16.8000 -108.800 HU 75 1 16.8000 -108.800 TC 75 16.7919 -108.781 3 9 305
1967287N13259 1967 122 EP MM PRISCILLA 1967-10-16 09:00:00 TS 17.0417 -109.149 main 502 502 P________PP___ EP151967 17.0424 -109.150 HU 75 1 17.0424 -109.150 TC 75 17.0393 -109.142 3 8 307
1967287N13259 1967 122 EP MM PRISCILLA 1967-10-16 12:00:00 TS 17.3000 -109.500 75 hurdat_epa main 517 517 O________OO___ hurdat_epa EP151967 17.3000 -109.500 HU 75 1 17.3000 -109.500 TC 75 17.3000 -109.500 4 9 308
1967287N13259 1967 122 EP MM PRISCILLA 1967-10-16 15:00:00 TS 17.5936 -109.899 main 535 535 P________PP___ EP151967 17.5925 -109.900 HU 75 1 17.5925 -109.900 TC 75 17.5978 -109.895 4 10 308
1967287N13259 1967 122 EP MM PRISCILLA 1967-10-16 18:00:00 TS 17.9015 -110.297 75 hurdat_epa main 556 529 O________OP___ hurdat_epa EP151967 17.9000 -110.300 HU 75 1 17.9000 -110.300 TC 75 17.9076 -110.287 4 10 310
1967287N13259 1967 122 EP MM PRISCILLA 1967-10-16 21:00:00 TS 18.2147 -110.670 main 530 500 P________PP___ EP151967 18.2150 -110.673 HU 75 1 18.2150 -110.673 TC 75 18.2135 -110.661 4 9 312
1967287N13259 1967 122 EP MM PRISCILLA 1967-10-17 00:00:00 TS 18.5000 -111.000 75 hurdat_epa main 502 485 O________OO___ hurdat_epa EP151967 18.5000 -111.000 HU 75 1 18.5000 -111.000 TC 75 18.5000 -111.000 4 8 311
1967287N13259 1967 122 EP MM PRISCILLA 1967-10-17 03:00:00 TS 18.7135 -111.265 main 488 470 P________PP___ EP151967 18.7074 -111.265 HU 75 1 18.7074 -111.265 TC 75 18.7378 -111.263 4 6 311
1967287N13259 1967 122 EP MM PRISCILLA 1967-10-17 06:00:00 TS 18.9113 -111.499 75 hurdat_epa main 473 460 O________OP___ hurdat_epa EP151967 18.9000 -111.500 HU 75 1 18.9000 -111.500 TC 75 18.9566 -111.494 4 6 314
1967287N13259 1967 122 EP MM PRISCILLA 1967-10-17 09:00:00 TS 19.1363 -111.734 main 460 442 P________PP___ EP151967 19.1274 -111.735 HU 75 1 19.1274 -111.735 TC 75 19.1721 -111.728 4 7 316
1967287N13259 1967 122 EP MM PRISCILLA 1967-10-17 12:00:00 TS 19.4000 -112.000 75 hurdat_epa main 442 424 O________OO___ hurdat_epa EP151967 19.4000 -112.000 HU 75 1 19.4000 -112.000 TC 75 19.4000 -112.000 4 8 317
1967287N13259 1967 122 EP MM PRISCILLA 1967-10-17 15:00:00 TS 19.7478 -112.328 main 429 417 P________PP___ EP151967 19.7574 -112.320 HU 75 1 19.7574 -112.320 TC 75 19.7096 -112.360 4 10 316
1967287N13259 1967 122 EP MM PRISCILLA 1967-10-17 18:00:00 TS 20.0851 -112.712 75 hurdat_epa main 419 418 O________OP___ hurdat_epa EP151967 20.1000 -112.700 HU 75 1 20.1000 -112.700 TC 75 20.0253 -112.761 4 10 307
1967287N13259 1967 122 EP MM PRISCILLA 1967-10-17 21:00:00 TS 20.3427 -113.156 main 440 432 P________PP___ EP151967 20.3526 -113.150 HU 75 1 20.3526 -113.150 TC 75 20.3033 -113.182 4 9 296
1967287N13259 1967 122 EP MM PRISCILLA 1967-10-18 00:00:00 TS 20.5000 -113.600 75 hurdat_epa main 458 458 O________OO___ hurdat_epa EP151967 20.5000 -113.600 HU 75 1 20.5000 -113.600 TC 75 20.5000 -113.600 2 8 285
1967287N13259 1967 122 EP MM PRISCILLA 1967-10-18 03:00:00 TS 20.5434 -113.952 main 492 492 P________PP___ EP151967 20.5373 -113.958 HU 60 0 20.5373 -113.958 TC 60 20.5680 -113.930 2 6 271
1967287N13259 1967 122 EP MM PRISCILLA 1967-10-18 06:00:00 TS 20.5106 -114.292 45 hurdat_epa main 515 515 O________OP___ hurdat_epa EP151967 20.5000 -114.300 TS 45 0 20.5000 -114.300 TC 45 20.5529 -114.261 2 7 263
1967287N13259 1967 122 EP MM PRISCILLA 1967-10-18 09:00:00 TS 20.4629 -114.645 main 531 531 P________PP___ EP151967 20.4571 -114.648 TS 45 0 20.4571 -114.648 TC 45 20.4864 -114.636 2 8 262
1967287N13259 1967 122 EP MM PRISCILLA 1967-10-18 12:00:00 TS 20.4000 -115.100 45 hurdat_epa main 570 570 O________OO___ hurdat_epa EP151967 20.4000 -115.100 TS 45 0 20.4000 -115.100 TC 45 20.4000 -115.100 2 10 264
1967287N13259 1967 122 EP MM PRISCILLA 1967-10-18 15:00:00 TS 20.3551 -115.752 main 612 612 P________PP___ EP151967 20.3577 -115.755 TS 45 0 20.3577 -115.755 TC 45 20.3449 -115.739 2 13 265
1967287N13259 1967 122 EP MM PRISCILLA 1967-10-18 18:00:00 TS 20.2949 -116.493 45 hurdat_epa main 667 667 O________OP___ hurdat_epa EP151967 20.3000 -116.500 TS 45 0 20.3000 -116.500 TC 45 20.2746 -116.463 2 14 264
1967287N13259 1967 122 EP MM PRISCILLA 1967-10-18 21:00:00 TS 20.2044 -117.225 main 726 726 P________PP___ EP151967 20.2075 -117.230 TS 45 0 20.2075 -117.230 TC 45 20.1918 -117.205 2 13 262
1967287N13259 1967 122 EP MM PRISCILLA 1967-10-19 00:00:00 TS 20.1000 -117.900 45 hurdat_epa main 786 786 O________OO___ hurdat_epa EP151967 20.1000 -117.900 TS 45 0 20.1000 -117.900 TC 45 20.1000 -117.900 2 11 260
1967287N13259 1967 122 EP MM PRISCILLA 1967-10-19 03:00:00 TS 20.0006 -118.427 main 832 832 P________PP___ EP151967 19.9996 -118.430 TS 45 0 19.9996 -118.430 TC 45 20.0049 -118.416 2 10 258
1967287N13259 1967 122 EP MM PRISCILLA 1967-10-19 06:00:00 TS 19.9009 -118.897 45 hurdat_epa main 879 879 O________OP___ hurdat_epa EP151967 19.9000 -118.900 TS 45 0 19.9000 -118.900 TC 45 19.9043 -118.884 2 9 257
1967287N13259 1967 122 EP MM PRISCILLA 1967-10-19 09:00:00 TS 19.7999 -119.362 main 927 927 P________PP___ EP151967 19.7995 -119.362 TS 45 0 19.7995 -119.362 TC 45 19.8017 -119.360 2 10 258
1967287N13259 1967 122 EP MM PRISCILLA 1967-10-19 12:00:00 TS 19.7000 -119.900 45 hurdat_epa main 975 975 O________OO___ hurdat_epa EP151967 19.7000 -119.900 TS 45 0 19.7000 -119.900 TC 45 19.7000 -119.900 2 12 260
1967287N13259 1967 122 EP MM PRISCILLA 1967-10-19 15:00:00 TS 19.6001 -120.604 main 1041 1041 P________PP___ EP151967 19.6001 -120.613 TS 45 0 19.6001 -120.613 TC 45 19.6001 -120.570 2 14 262
1967287N13259 1967 122 EP MM PRISCILLA 1967-10-19 18:00:00 TS 19.5000 -121.382 45 hurdat_epa main 1116 1116 O________OP___ hurdat_epa EP151967 19.5000 -121.400 TS 45 0 19.5000 -121.400 TC 45 19.5000 -121.310 2 15 262
1967287N13259 1967 122 EP MM PRISCILLA 1967-10-19 21:00:00 TS 19.3996 -122.133 main 1173 1173 P________PP___ EP151967 19.3996 -122.142 TS 45 0 19.3996 -122.142 TC 45 19.3998 -122.095 2 14 262
1967287N13259 1967 122 EP MM PRISCILLA 1967-10-20 00:00:00 TS 19.3000 -122.900 45 hurdat_epa main 1236 1236 O________OO___ hurdat_epa EP151967 19.3000 -122.900 TS 45 0 19.3000 -122.900 TC 45 19.3000 -122.900 2 15 262
1967287N13259 1967 122 EP MM PRISCILLA 1967-10-20 03:00:00 TS 19.2000 -123.695 main 1298 1298 P________PP___ EP151967 19.1997 -123.692 TS 45 0 19.1997 -123.692 TC 45 19.2010 -123.704 2 15 262
1967287N13259 1967 122 EP MM PRISCILLA 1967-10-20 06:00:00 TS 19.1004 -124.501 45 hurdat_epa main 1363 1363 O________OP___ hurdat_epa EP151967 19.1000 -124.500 TS 45 0 19.1000 -124.500 TC 45 19.1022 -124.505 2 15 263
1967287N13259 1967 122 EP MM PRISCILLA 1967-10-20 09:00:00 TS 19.0009 -125.303 main 1430 1430 P________PP___ EP151967 19.0006 -125.303 TS 45 0 19.0006 -125.303 TC 45 19.0022 -125.304 2 15 262
1967287N13259 1967 122 EP MM PRISCILLA 1967-10-20 12:00:00 TS 18.9000 -126.100 45 hurdat_epa main 1498 O________OO___ hurdat_epa EP151967 18.9000 -126.100 TS 45 0 18.9000 -126.100 TC 45 18.9000 -126.100 2 15 262

IBTrACS Databaseについて

本データベースは、米国NOAAが公開する1842年以降の世界の熱帯低気圧のベストトラックデータアーカイブInternational Best Track Archive for Climate Stewardship (IBTrACS)を、ウェブで閲覧しやすい形式に変換したものです。

最終更新日:2021-12-03